Time;durP1;ratioP1;P1;durP2;ratioP2;P2;SDS_P1;SDS_P2;PMS_P1;PMS_P2;Temp;Humidity;BMP_temperature;BMP_pressure;BME280_temperature;BME280_humidity;BME280_pressure;Samples;Min_cycle;Max_cycle;Signal;HPM_P1;HPM_P2
2022/12/03 00:00:16;;;;;;;;;;;1.60;99.90;;;;;;5004149;28;19963;-61
2022/12/03 00:02:44;;;;;;;;;;;1.60;99.90;;;;;;5003968;28;19983;-61
2022/12/03 00:05:12;;;;;;;;;;;1.60;99.90;;;;;;5004003;28;19975;-60
2022/12/03 00:07:40;;;;;;;;;;;1.60;99.90;;;;;;5004135;28;19965;-62
2022/12/03 00:10:09;;;;;;;;;;;1.60;99.90;;;;;;5003913;28;19972;-62
2022/12/03 00:12:37;;;;;;;;;;;1.70;99.90;;;;;;5003044;28;19975;-61
2022/12/03 00:15:06;;;;;;;;;;;1.60;99.90;;;;;;5002644;28;19971;-61
2022/12/03 00:17:33;;;;;;;;;;;1.70;99.90;;;;;;5003108;28;19967;-62
2022/12/03 00:20:01;;;;;;;;;;;1.60;99.90;;;;;;5001205;28;19964;-61
2022/12/03 00:22:29;;;;;;;;;;;1.60;99.90;;;;;;5020980;28;20422;-61
2022/12/03 00:24:56;;;;;;;;;;;1.50;99.90;;;;;;5009715;28;20006;-61
2022/12/03 00:27:25;;;;;;;;;;;1.60;99.90;;;;;;5006422;28;19975;-61
2022/12/03 00:29:53;;;;;;;;;;;1.60;99.90;;;;;;5022618;28;20438;-62
2022/12/03 00:32:21;;;;;;;;;;;1.60;99.90;;;;;;5011878;28;19965;-61
2022/12/03 00:34:48;;;;;;;;;;;1.60;99.90;;;;;;5008145;28;20363;-61
2022/12/03 00:37:16;;;;;;;;;;;1.60;99.90;;;;;;5012330;28;19964;-62
2022/12/03 00:39:44;;;;;;;;;;;1.60;99.90;;;;;;5011350;28;20321;-61
2022/12/03 00:42:12;;;;;;;;;;;1.60;99.90;;;;;;5012371;28;19978;-62
2022/12/03 00:44:41;;;;;;;;;;;1.70;99.90;;;;;;5009674;28;19963;-62
2022/12/03 00:47:09;;;;;;;;;;;1.70;99.90;;;;;;5008969;28;19999;-62
2022/12/03 00:49:37;;;;;;;;;;;1.70;99.90;;;;;;5021115;28;20023;-62
2022/12/03 00:52:04;;;;;;;;;;;1.70;99.90;;;;;;5016433;28;19970;-62
2022/12/03 00:54:32;;;;;;;;;;;1.70;99.90;;;;;;5020147;28;19993;-61
2022/12/03 00:57:00;;;;;;;;;;;1.80;99.90;;;;;;5012448;28;19964;-61
2022/12/03 00:59:28;;;;;;;;;;;1.80;99.90;;;;;;5012553;28;19973;-61
2022/12/03 01:01:57;;;;;;;;;;;1.80;99.90;;;;;;5008353;28;19967;-62
2022/12/03 01:04:25;;;;;;;;;;;1.80;99.90;;;;;;5017083;28;20049;-62
2022/12/03 01:06:53;;;;;;;;;;;1.90;99.90;;;;;;5025982;28;20309;-62
2022/12/03 01:09:20;;;;;;;;;;;2.00;99.90;;;;;;5022528;28;19964;-62
2022/12/03 01:11:48;;;;;;;;;;;1.90;99.90;;;;;;5007156;28;20509;-62
2022/12/03 01:14:17;;;;;;;;;;;1.90;99.90;;;;;;5014018;28;19990;-62
2022/12/03 01:16:45;;;;;;;;;;;1.90;99.90;;;;;;5010385;28;19975;-62
2022/12/03 01:19:15;;;;;;;;;;;1.90;99.90;;;;;;5004484;28;19963;-62
2022/12/03 01:21:43;;;;;;;;;;;1.90;99.90;;;;;;5009425;28;20348;-61
2022/12/03 01:24:11;;;;;;;;;;;1.90;99.90;;;;;;5020137;28;19971;-62
2022/12/03 01:26:39;;;;;;;;;;;1.90;99.90;;;;;;5008243;28;19971;-61
2022/12/03 01:29:06;;;;;;;;;;;1.90;99.90;;;;;;5011563;28;20339;-61
2022/12/03 01:34:20;;;;;;;;;;;1.90;99.90;;;;;;5010937;28;19967;-61
2022/12/03 01:36:47;;;;;;;;;;;1.90;99.90;;;;;;5015513;28;19974;-61
2022/12/03 01:39:15;;;;;;;;;;;2.10;99.90;;;;;;5023577;28;20069;-61
2022/12/03 01:41:43;;;;;;;;;;;2.10;99.90;;;;;;5017687;28;19970;-62
2022/12/03 01:44:14;;;;;;;;;;;2.00;99.90;;;;;;5010065;28;19970;-61
2022/12/03 01:46:43;;;;;;;;;;;2.00;99.90;;;;;;4996001;28;19963;-61
2022/12/03 01:49:14;;;;;;;;;;;2.00;99.90;;;;;;5015507;28;19991;-61
2022/12/03 01:51:45;;;;;;;;;;;2.10;99.90;;;;;;4990657;28;20283;-62
2022/12/03 01:54:15;;;;;;;;;;;2.00;99.90;;;;;;5009236;28;19986;-62
2022/12/03 01:56:43;;;;;;;;;;;2.00;99.90;;;;;;5011336;28;20397;-62
2022/12/03 01:59:13;;;;;;;;;;;2.10;99.90;;;;;;5010881;28;19965;-62
2022/12/03 02:01:41;;;;;;;;;;;2.00;99.90;;;;;;5004060;28;20058;-62
2022/12/03 02:04:10;;;;;;;;;;;2.10;99.90;;;;;;5010179;28;20488;-61
2022/12/03 02:06:38;;;;;;;;;;;2.00;99.90;;;;;;5008102;28;20498;-61
2022/12/03 02:09:09;;;;;;;;;;;2.10;99.90;;;;;;5019570;28;19964;-61
2022/12/03 02:11:38;;;;;;;;;;;2.10;99.90;;;;;;5009213;28;20349;-61
2022/12/03 02:14:07;;;;;;;;;;;2.10;99.90;;;;;;5005717;28;19963;-61
2022/12/03 02:16:36;;;;;;;;;;;2.10;99.90;;;;;;5007925;28;19974;-62
2022/12/03 02:19:08;;;;;;;;;;;2.10;99.90;;;;;;5003730;28;20438;-60
2022/12/03 02:21:40;;;;;;;;;;;2.10;99.90;;;;;;5002456;28;19978;-60
2022/12/03 02:24:12;;;;;;;;;;;2.10;99.90;;;;;;5000114;28;19972;-60
2022/12/03 02:26:41;;;;;;;;;;;2.10;99.90;;;;;;5014790;28;19964;-60
2022/12/03 02:29:09;;;;;;;;;;;2.10;99.90;;;;;;5014958;28;19968;-60
2022/12/03 02:31:36;;;;;;;;;;;2.10;99.90;;;;;;5009504;28;19964;-61
2022/12/03 02:34:05;;;;;;;;;;;2.10;99.90;;;;;;5020929;28;20099;-61
2022/12/03 02:36:33;;;;;;;;;;;2.10;99.90;;;;;;5005347;28;20362;-61
2022/12/03 02:39:01;;;;;;;;;;;2.10;99.90;;;;;;5002529;28;19974;-61
2022/12/03 02:44:12;;;;;;;;;;;2.10;99.90;;;;;;4978654;28;19969;-60
2022/12/03 02:46:39;;;;;;;;;;;2.20;99.90;;;;;;5012724;28;19964;-61
2022/12/03 02:49:07;;;;;;;;;;;2.10;99.90;;;;;;5011712;28;20066;-61
2022/12/03 02:51:35;;;;;;;;;;;2.10;99.90;;;;;;5009383;28;19971;-61
2022/12/03 02:54:03;;;;;;;;;;;2.20;99.90;;;;;;5015910;28;19964;-61
2022/12/03 02:56:32;;;;;;;;;;;2.10;99.90;;;;;;5008850;28;19967;-61
2022/12/03 02:59:01;;;;;;;;;;;2.20;99.90;;;;;;5008035;28;20707;-61
2022/12/03 03:01:30;;;;;;;;;;;2.20;99.90;;;;;;4996991;28;19976;-61
2022/12/03 03:03:59;;;;;;;;;;;2.20;99.90;;;;;;5001492;28;19964;-61
2022/12/03 03:06:27;;;;;;;;;;;2.20;99.90;;;;;;5002152;28;19965;-60
2022/12/03 03:08:55;;;;;;;;;;;2.20;99.90;;;;;;5015041;28;19968;-61
2022/12/03 03:11:23;;;;;;;;;;;2.20;99.90;;;;;;5000778;28;20451;-61
2022/12/03 03:13:51;;;;;;;;;;;2.10;99.90;;;;;;5004374;28;19979;-62
2022/12/03 03:16:18;;;;;;;;;;;2.20;99.90;;;;;;5001239;28;20063;-61
2022/12/03 03:18:48;;;;;;;;;;;2.20;99.90;;;;;;5024411;28;20063;-61
2022/12/03 03:21:16;;;;;;;;;;;2.10;99.90;;;;;;5000063;28;20448;-61
2022/12/03 03:23:44;;;;;;;;;;;2.20;99.90;;;;;;5003814;28;19979;-61
2022/12/03 03:26:13;;;;;;;;;;;2.20;99.90;;;;;;5002410;28;19964;-60
2022/12/03 03:28:42;;;;;;;;;;;2.10;99.90;;;;;;5013256;28;19972;-61
2022/12/03 03:31:11;;;;;;;;;;;2.20;99.90;;;;;;5003250;28;19964;-61
2022/12/03 03:33:41;;;;;;;;;;;2.20;99.90;;;;;;5011721;28;20022;-61
2022/12/03 03:36:10;;;;;;;;;;;2.10;99.90;;;;;;5010396;28;19992;-61
2022/12/03 03:38:38;;;;;;;;;;;2.20;99.90;;;;;;5003687;28;19971;-58
2022/12/03 03:41:07;;;;;;;;;;;2.20;99.90;;;;;;5013045;28;20007;-61
2022/12/03 03:43:36;;;;;;;;;;;2.30;99.90;;;;;;5016001;28;19965;-61
2022/12/03 03:46:05;;;;;;;;;;;2.20;99.90;;;;;;5009309;28;20448;-61
2022/12/03 03:48:33;;;;;;;;;;;2.30;99.90;;;;;;4999881;28;19995;-61
2022/12/03 03:51:02;;;;;;;;;;;2.20;99.90;;;;;;5028951;22;20104;-65
2022/12/03 03:53:31;;;;;;;;;;;2.10;99.90;;;;;;5032653;28;19972;-65
2022/12/03 03:55:59;;;;;;;;;;;2.10;99.90;;;;;;5032616;28;19974;-66
2022/12/03 03:58:27;;;;;;;;;;;2.10;99.90;;;;;;5035256;28;20367;-67
2022/12/03 04:00:54;;;;;;;;;;;2.00;99.90;;;;;;5021290;28;19996;-65
2022/12/03 04:03:22;;;;;;;;;;;2.10;99.90;;;;;;5027958;28;19972;-65
2022/12/03 04:05:50;;;;;;;;;;;2.10;99.90;;;;;;5026646;28;19965;-65
2022/12/03 04:08:18;;;;;;;;;;;2.10;99.90;;;;;;5024886;28;19977;-65
2022/12/03 04:13:32;;;;;;;;;;;2.20;99.90;;;;;;5024808;28;19993;-65
2022/12/03 04:16:00;;;;;;;;;;;2.10;99.90;;;;;;5023958;28;19989;-65
2022/12/03 04:18:42;;;;;;;;;;;2.10;99.90;;;;;;5019331;28;19968;-65
2022/12/03 04:23:56;;;;;;;;;;;2.10;99.90;;;;;;5023072;28;19963;-66
2022/12/03 04:29:10;;;;;;;;;;;2.10;99.90;;;;;;5022890;28;20450;-66
2022/12/03 04:37:08;;;;;;;;;;;2.00;99.90;;;;;;5023902;28;19967;-65
2022/12/03 04:39:36;;;;;;;;;;;2.00;99.90;;;;;;5026852;28;19974;-65
2022/12/03 04:42:06;;;;;;;;;;;2.00;99.90;;;;;;5023329;28;19964;-65
2022/12/03 04:44:35;;;;;;;;;;;2.00;99.90;;;;;;5023374;28;19977;-66
2022/12/03 04:47:05;;;;;;;;;;;2.00;99.90;;;;;;5022668;28;19994;-66
2022/12/03 04:49:33;;;;;;;;;;;2.00;99.90;;;;;;5022406;28;19967;-66
2022/12/03 04:52:01;;;;;;;;;;;2.00;99.90;;;;;;5027793;28;19972;-66
2022/12/03 04:54:29;;;;;;;;;;;2.10;99.90;;;;;;5022169;28;19965;-65
2022/12/03 04:56:56;;;;;;;;;;;2.00;99.90;;;;;;5023232;28;19975;-66
2022/12/03 04:59:25;;;;;;;;;;;2.00;99.90;;;;;;5024176;28;19987;-65
2022/12/03 05:01:53;;;;;;;;;;;2.00;99.90;;;;;;5022810;28;19970;-65
2022/12/03 05:04:21;;;;;;;;;;;2.00;99.90;;;;;;5027485;28;19969;-66
2022/12/03 05:06:49;;;;;;;;;;;2.00;99.90;;;;;;5029044;28;19963;-66
2022/12/03 05:09:17;;;;;;;;;;;2.00;99.90;;;;;;5021623;28;20054;-66
2022/12/03 05:11:45;;;;;;;;;;;2.00;99.90;;;;;;5022667;28;19965;-65
2022/12/03 05:14:12;;;;;;;;;;;1.90;99.90;;;;;;5022538;28;19982;-66
2022/12/03 05:16:41;;;;;;;;;;;1.90;99.90;;;;;;5027964;28;19975;-65
2022/12/03 05:19:09;;;;;;;;;;;2.10;99.90;;;;;;5025528;28;19967;-65
2022/12/03 05:21:36;;;;;;;;;;;2.00;99.90;;;;;;5024206;28;19973;-65
2022/12/03 05:24:04;;;;;;;;;;;2.00;99.90;;;;;;5027759;28;19967;-65
2022/12/03 05:26:32;;;;;;;;;;;1.90;99.90;;;;;;5026209;28;19999;-65
2022/12/03 05:29:00;;;;;;;;;;;1.90;99.90;;;;;;5022407;28;19967;-66
2022/12/03 05:31:28;;;;;;;;;;;1.90;99.90;;;;;;5004963;28;19968;-65
2022/12/03 05:33:57;;;;;;;;;;;1.90;99.90;;;;;;5027977;28;20002;-65
2022/12/03 05:36:25;;;;;;;;;;;1.90;99.90;;;;;;5019961;28;19999;-65
2022/12/03 05:38:52;;;;;;;;;;;1.90;99.90;;;;;;5026545;28;19971;-65
2022/12/03 05:44:05;;;;;;;;;;;1.90;99.90;;;;;;5022481;28;19970;-65
2022/12/03 05:46:33;;;;;;;;;;;2.00;99.90;;;;;;5022783;28;20526;-66
2022/12/03 05:49:02;;;;;;;;;;;2.00;99.90;;;;;;5021040;28;20025;-66
2022/12/03 05:51:30;;;;;;;;;;;2.00;99.90;;;;;;5021334;28;19983;-65
2022/12/03 05:53:58;;;;;;;;;;;2.10;99.90;;;;;;5030333;28;19968;-66
2022/12/03 05:56:25;;;;;;;;;;;2.00;99.90;;;;;;5025407;28;19964;-65
2022/12/03 05:58:53;;;;;;;;;;;2.00;99.90;;;;;;5023839;28;20436;-66
2022/12/03 06:01:21;;;;;;;;;;;2.10;99.90;;;;;;5024954;28;19964;-66
2022/12/03 06:03:48;;;;;;;;;;;2.20;99.90;;;;;;5029184;28;19979;-66
2022/12/03 06:06:18;;;;;;;;;;;2.10;99.90;;;;;;5023958;28;19995;-66
2022/12/03 06:08:45;;;;;;;;;;;2.10;99.90;;;;;;5026217;28;19965;-66
2022/12/03 06:11:13;;;;;;;;;;;2.10;99.90;;;;;;5025699;28;19971;-67
2022/12/03 06:13:41;;;;;;;;;;;2.10;99.90;;;;;;5026467;28;20478;-66
2022/12/03 06:16:08;;;;;;;;;;;2.00;99.90;;;;;;5022535;28;20024;-65
2022/12/03 06:18:36;;;;;;;;;;;1.90;99.90;;;;;;5030053;28;20357;-66
2022/12/03 06:21:04;;;;;;;;;;;2.00;99.90;;;;;;5020454;28;19969;-66
2022/12/03 06:23:33;;;;;;;;;;;1.90;99.90;;;;;;5029717;28;20062;-66
2022/12/03 06:26:01;;;;;;;;;;;1.90;99.90;;;;;;5025373;28;20454;-65
2022/12/03 06:28:28;;;;;;;;;;;2.00;99.90;;;;;;5029291;28;19982;-65
2022/12/03 06:30:56;;;;;;;;;;;2.00;99.90;;;;;;5027817;28;19971;-65
2022/12/03 06:33:24;;;;;;;;;;;2.00;99.90;;;;;;5029651;28;19999;-66
2022/12/03 06:35:52;;;;;;;;;;;1.90;99.90;;;;;;5029729;28;20011;-65
2022/12/03 06:38:21;;;;;;;;;;;1.90;99.90;;;;;;5029863;28;19974;-65
2022/12/03 06:40:50;;;;;;;;;;;2.00;99.90;;;;;;5029255;28;19964;-65
2022/12/03 06:43:17;;;;;;;;;;;2.00;99.90;;;;;;5029997;28;19964;-66
2022/12/03 06:45:45;;;;;;;;;;;2.00;99.90;;;;;;5030531;28;20351;-65
2022/12/03 06:48:14;;;;;;;;;;;2.00;99.90;;;;;;5033211;28;20815;-66
2022/12/03 06:50:42;;;;;;;;;;;2.00;99.90;;;;;;5032722;28;20465;-67
2022/12/03 06:53:10;;;;;;;;;;;2.00;99.90;;;;;;5033150;28;19964;-65
2022/12/03 06:55:37;;;;;;;;;;;2.00;99.90;;;;;;5033097;28;20041;-64
2022/12/03 06:58:07;;;;;;;;;;;2.00;99.90;;;;;;5025471;28;19965;-66
2022/12/03 07:00:34;;;;;;;;;;;2.00;99.90;;;;;;5032408;28;20055;-65
2022/12/03 07:03:02;;;;;;;;;;;2.00;99.90;;;;;;5030843;28;19970;-65
2022/12/03 07:05:30;;;;;;;;;;;2.00;99.90;;;;;;5025143;28;20014;-65
2022/12/03 07:07:58;;;;;;;;;;;2.00;99.90;;;;;;5026904;28;19971;-65
2022/12/03 07:10:26;;;;;;;;;;;2.00;99.90;;;;;;5030685;28;20009;-64
2022/12/03 07:12:53;;;;;;;;;;;2.00;99.90;;;;;;5029478;28;19971;-63
2022/12/03 07:15:22;;;;;;;;;;;1.90;99.90;;;;;;5031260;28;20058;-65
2022/12/03 07:17:50;;;;;;;;;;;2.00;99.90;;;;;;5031507;28;20333;-65
2022/12/03 07:20:18;;;;;;;;;;;2.00;99.90;;;;;;5026085;28;19972;-65
2022/12/03 07:22:46;;;;;;;;;;;2.00;99.90;;;;;;5028426;28;19964;-65
2022/12/03 07:25:14;;;;;;;;;;;2.00;99.90;;;;;;5031517;28;19990;-65
2022/12/03 07:27:49;;;;;;;;;;;2.00;99.90;;;;;;5026615;28;19979;-64
2022/12/03 07:30:17;;;;;;;;;;;2.00;99.90;;;;;;5021624;28;19987;-66
2022/12/03 07:32:46;;;;;;;;;;;2.00;99.90;;;;;;5027175;28;20414;-65
2022/12/03 07:35:16;;;;;;;;;;;2.00;99.90;;;;;;5028395;28;19963;-65
2022/12/03 07:37:43;;;;;;;;;;;2.00;99.90;;;;;;5028176;28;19979;-65
2022/12/03 07:40:12;;;;;;;;;;;2.00;99.90;;;;;;5028741;28;20344;-64
2022/12/03 07:42:39;;;;;;;;;;;2.00;99.90;;;;;;5028314;28;19983;-65
2022/12/03 07:45:08;;;;;;;;;;;2.00;99.90;;;;;;5023353;28;19970;-65
2022/12/03 07:47:36;;;;;;;;;;;2.00;99.90;;;;;;5027377;28;19964;-65
2022/12/03 07:50:05;;;;;;;;;;;2.00;99.90;;;;;;5026336;28;20061;-64
2022/12/03 07:52:33;;;;;;;;;;;2.10;99.90;;;;;;5031327;28;19985;-65
2022/12/03 07:55:01;;;;;;;;;;;2.10;99.90;;;;;;5027453;28;19971;-66
2022/12/03 07:57:28;;;;;;;;;;;2.10;99.90;;;;;;5031239;28;19965;-65
2022/12/03 07:59:56;;;;;;;;;;;2.10;99.90;;;;;;5027470;28;20333;-66
2022/12/03 08:02:24;;;;;;;;;;;2.10;99.90;;;;;;5028358;28;19963;-64
2022/12/03 08:04:51;;;;;;;;;;;2.10;99.90;;;;;;5028547;28;19968;-67
2022/12/03 08:07:21;;;;;;;;;;;2.10;99.90;;;;;;5025013;28;20484;-65
2022/12/03 08:09:49;;;;;;;;;;;2.10;99.90;;;;;;5023572;28;19965;-65
2022/12/03 08:12:38;;;;;;;;;;;2.00;99.90;;;;;;5026204;28;19968;-65
2022/12/03 08:15:10;;;;;;;;;;;2.10;99.90;;;;;;5029761;28;20019;-65
2022/12/03 08:17:39;;;;;;;;;;;2.10;99.90;;;;;;5023756;28;19976;-65
2022/12/03 08:20:11;;;;;;;;;;;2.10;99.90;;;;;;5023236;28;20063;-65
2022/12/03 08:22:40;;;;;;;;;;;2.10;99.90;;;;;;5023687;28;19983;-65
2022/12/03 08:25:13;;;;;;;;;;;2.20;99.90;;;;;;5019568;28;20054;-65
2022/12/03 08:27:41;;;;;;;;;;;2.20;99.90;;;;;;5025217;28;20320;-65
2022/12/03 08:30:11;;;;;;;;;;;2.20;99.90;;;;;;5019534;28;19971;-65
2022/12/03 08:32:39;;;;;;;;;;;2.20;99.90;;;;;;5022515;28;19964;-66
2022/12/03 08:35:10;;;;;;;;;;;2.20;99.90;;;;;;5020426;28;19967;-65
2022/12/03 08:37:38;;;;;;;;;;;2.20;99.90;;;;;;5027416;28;20046;-65
2022/12/03 08:40:19;;;;;;;;;;;2.20;99.90;;;;;;5030543;28;20473;-65
2022/12/03 08:42:47;;;;;;;;;;;2.20;99.90;;;;;;5028647;28;19963;-64
2022/12/03 08:45:30;;;;;;;;;;;2.30;99.90;;;;;;5028748;28;19965;-65
2022/12/03 08:47:59;;;;;;;;;;;2.30;99.90;;;;;;5029804;28;20051;-66
2022/12/03 08:50:27;;;;;;;;;;;2.40;99.90;;;;;;5030163;28;19970;-66
2022/12/03 08:52:58;;;;;;;;;;;2.40;99.90;;;;;;5030491;28;20538;-65
2022/12/03 08:55:33;;;;;;;;;;;2.40;99.90;;;;;;5024682;28;19968;-66
2022/12/03 08:58:05;;;;;;;;;;;2.40;99.90;;;;;;5025861;28;19969;-65
2022/12/03 09:00:33;;;;;;;;;;;2.50;99.90;;;;;;5021721;28;19972;-65
2022/12/03 09:03:01;;;;;;;;;;;2.50;99.90;;;;;;5024123;28;19970;-65
2022/12/03 09:05:31;;;;;;;;;;;2.50;99.90;;;;;;5026082;28;19974;-64
2022/12/03 09:07:58;;;;;;;;;;;2.60;99.90;;;;;;5021859;28;20007;-64
2022/12/03 09:10:27;;;;;;;;;;;2.60;99.90;;;;;;5027176;28;20463;-64
2022/12/03 09:12:56;;;;;;;;;;;2.60;99.90;;;;;;5022607;28;19990;-64
2022/12/03 09:15:24;;;;;;;;;;;2.60;99.90;;;;;;5024945;28;19965;-66
2022/12/03 09:17:51;;;;;;;;;;;2.60;99.90;;;;;;5026046;28;19964;-65
2022/12/03 09:20:19;;;;;;;;;;;2.70;99.90;;;;;;5025308;28;20340;-65
2022/12/03 09:22:47;;;;;;;;;;;2.70;99.90;;;;;;5027271;28;19965;-65
2022/12/03 09:25:15;;;;;;;;;;;2.70;99.90;;;;;;5020469;28;19969;-65
2022/12/03 09:27:43;;;;;;;;;;;2.70;99.90;;;;;;5028121;28;19969;-65
2022/12/03 09:30:13;;;;;;;;;;;2.60;99.90;;;;;;5022713;28;20063;-65
2022/12/03 09:32:40;;;;;;;;;;;2.60;99.90;;;;;;5025756;28;20355;-66
2022/12/03 09:35:09;;;;;;;;;;;2.60;99.90;;;;;;5023810;28;19971;-67
2022/12/03 09:37:36;;;;;;;;;;;2.60;99.90;;;;;;5027540;28;19968;-65
2022/12/03 09:40:05;;;;;;;;;;;2.70;99.90;;;;;;5026001;28;19972;-65
2022/12/03 09:42:33;;;;;;;;;;;2.70;99.90;;;;;;5026734;28;19983;-65
2022/12/03 09:45:01;;;;;;;;;;;2.70;99.90;;;;;;5023452;28;20465;-65
2022/12/03 09:47:30;;;;;;;;;;;2.70;99.90;;;;;;5028798;28;19964;-65
2022/12/03 09:49:58;;;;;;;;;;;2.70;99.90;;;;;;5025437;28;20552;-65
2022/12/03 09:52:27;;;;;;;;;;;2.70;99.90;;;;;;5027464;28;20017;-65
2022/12/03 09:54:54;;;;;;;;;;;2.70;99.90;;;;;;5020334;28;19964;-66
2022/12/03 09:57:23;;;;;;;;;;;2.80;99.90;;;;;;5029655;28;20450;-65
2022/12/03 09:59:50;;;;;;;;;;;2.70;99.90;;;;;;5025812;28;20072;-65
2022/12/03 10:02:20;;;;;;;;;;;2.80;99.90;;;;;;5024819;28;19964;-65
2022/12/03 10:04:49;;;;;;;;;;;2.70;99.90;;;;;;5028331;28;19979;-65
2022/12/03 10:07:18;;;;;;;;;;;2.70;99.90;;;;;;5021991;28;19975;-65
2022/12/03 10:09:45;;;;;;;;;;;2.80;99.90;;;;;;5021924;28;20890;-67
2022/12/03 10:12:13;;;;;;;;;;;2.80;99.90;;;;;;5026268;28;19969;-65
2022/12/03 10:14:42;;;;;;;;;;;2.90;99.90;;;;;;5030027;28;19972;-66
2022/12/03 10:17:11;;;;;;;;;;;2.90;99.90;;;;;;5029484;28;19972;-65
2022/12/03 10:19:41;;;;;;;;;;;2.90;99.90;;;;;;5026309;28;20000;-65
2022/12/03 10:22:10;;;;;;;;;;;2.90;99.90;;;;;;5033197;28;19965;-65
2022/12/03 10:24:38;;;;;;;;;;;3.00;99.90;;;;;;5021748;28;19965;-65
2022/12/03 10:27:20;;;;;;;;;;;3.00;99.90;;;;;;5028681;28;19968;-65
2022/12/03 10:29:54;;;;;;;;;;;2.90;99.90;;;;;;5025611;28;19972;-66
2022/12/03 10:32:24;;;;;;;;;;;2.90;99.90;;;;;;5029240;28;19979;-65
2022/12/03 10:35:05;;;;;;;;;;;2.90;99.90;;;;;;5029525;28;19972;-66
2022/12/03 10:37:34;;;;;;;;;;;2.90;99.90;;;;;;5032869;28;19972;-66
2022/12/03 10:40:07;;;;;;;;;;;2.90;99.90;;;;;;5030952;28;20063;-66
2022/12/03 10:42:36;;;;;;;;;;;2.90;99.90;;;;;;5033342;28;19967;-65
2022/12/03 10:45:22;;;;;;;;;;;2.80;99.90;;;;;;5032030;28;19979;-65
2022/12/03 10:48:03;;;;;;;;;;;2.70;99.90;;;;;;5029517;28;19969;-65
2022/12/03 10:50:32;;;;;;;;;;;2.80;99.90;;;;;;5031286;28;20470;-65
2022/12/03 10:53:01;;;;;;;;;;;2.70;99.90;;;;;;5033299;28;20064;-65
2022/12/03 10:55:32;;;;;;;;;;;2.70;99.90;;;;;;5027771;28;20459;-65
2022/12/03 10:58:00;;;;;;;;;;;2.80;99.90;;;;;;5028846;28;20018;-66
2022/12/03 11:00:28;;;;;;;;;;;2.70;99.90;;;;;;5031808;28;20067;-66
2022/12/03 11:02:55;;;;;;;;;;;2.70;99.90;;;;;;5027344;28;19967;-65
2022/12/03 11:05:26;;;;;;;;;;;2.70;99.90;;;;;;5032600;28;19972;-65
2022/12/03 11:07:54;;;;;;;;;;;2.70;99.90;;;;;;5031739;28;20064;-65
2022/12/03 11:10:24;;;;;;;;;;;2.70;99.90;;;;;;5029737;28;19964;-65
2022/12/03 11:13:19;;;;;;;;;;;2.70;99.90;;;;;;5023191;28;19975;-66
2022/12/03 11:15:47;;;;;;;;;;;2.80;99.90;;;;;;5026200;28;19965;-65
2022/12/03 11:18:29;;;;;;;;;;;2.70;99.90;;;;;;5030784;28;20054;-65
2022/12/03 11:21:02;;;;;;;;;;;2.70;99.90;;;;;;5020516;28;19968;-66
2022/12/03 11:23:57;;;;;;;;;;;2.70;99.90;;;;;;5022326;28;20353;-64
2022/12/03 11:26:44;;;;;;;;;;;2.70;99.90;;;;;;4968186;28;20035;-65
2022/12/03 11:29:14;;;;;;;;;;;2.70;99.90;;;;;;5029308;28;19991;-66
2022/12/03 11:31:42;;;;;;;;;;;2.70;99.90;;;;;;5028722;28;19991;-66
2022/12/03 11:34:39;;;;;;;;;;;2.70;99.90;;;;;;5022695;28;20579;-65
2022/12/03 11:37:23;;;;;;;;;;;2.70;99.90;;;;;;5024512;28;19963;-65
2022/12/03 11:40:09;;;;;;;;;;;2.70;99.90;;;;;;5027875;28;19972;-65
2022/12/03 11:42:38;;;;;;;;;;;2.70;99.90;;;;;;5026573;28;19975;-65
2022/12/03 11:45:16;;;;;;;;;;;2.80;99.90;;;;;;5025071;28;19982;-65
2022/12/03 11:47:45;;;;;;;;;;;3.00;99.90;;;;;;5024952;28;20006;-65
2022/12/03 11:50:19;;;;;;;;;;;4.00;99.90;;;;;;5027187;28;19967;-65
2022/12/03 11:52:48;;;;;;;;;;;3.90;99.90;;;;;;5024319;28;19964;-65
2022/12/03 11:55:18;;;;;;;;;;;3.80;99.90;;;;;;5022490;28;20929;-64
2022/12/03 11:57:46;;;;;;;;;;;3.70;99.90;;;;;;5024573;28;19964;-65
2022/12/03 12:00:20;;;;;;;;;;;4.00;99.90;;;;;;5020272;28;19971;-65
2022/12/03 12:02:48;;;;;;;;;;;3.90;99.90;;;;;;5021034;28;20023;-64
2022/12/03 12:05:18;;;;;;;;;;;3.60;99.90;;;;;;5030216;28;20392;-64
2022/12/03 12:07:47;;;;;;;;;;;3.40;99.90;;;;;;5031331;28;20062;-64
2022/12/03 12:10:34;;;;;;;;;;;3.30;99.90;;;;;;5031440;28;19971;-64
2022/12/03 12:13:02;;;;;;;;;;;3.10;99.90;;;;;;5028456;28;20070;-64
2022/12/03 12:15:41;;;;;;;;;;;3.10;99.90;;;;;;5030711;28;20525;-65
2022/12/03 12:18:27;;;;;;;;;;;3.10;99.90;;;;;;5028434;28;20063;-68
2022/12/03 12:20:55;;;;;;;;;;;3.00;99.90;;;;;;5029923;28;20397;-64
2022/12/03 12:23:28;;;;;;;;;;;3.00;99.90;;;;;;5029146;28;19968;-65
2022/12/03 12:26:05;;;;;;;;;;;2.90;99.90;;;;;;5009224;28;19968;-63
2022/12/03 12:28:32;;;;;;;;;;;2.90;99.90;;;;;;5030041;28;20114;-64
2022/12/03 12:31:01;;;;;;;;;;;2.90;99.90;;;;;;5029936;28;19964;-62
2022/12/03 12:33:33;;;;;;;;;;;2.90;99.90;;;;;;5030111;28;20481;-64
2022/12/03 12:36:05;;;;;;;;;;;2.90;99.90;;;;;;5024822;28;19965;-66
2022/12/03 12:38:32;;;;;;;;;;;2.90;99.90;;;;;;5030243;28;20353;-64
2022/12/03 12:41:02;;;;;;;;;;;3.00;99.90;;;;;;5019976;28;19998;-63
2022/12/03 12:43:32;;;;;;;;;;;3.00;99.90;;;;;;5021436;28;19972;-63
2022/12/03 12:46:09;;;;;;;;;;;3.00;99.90;;;;;;5029254;28;20443;-63
2022/12/03 12:48:57;;;;;;;;;;;3.00;99.90;;;;;;5011517;28;20476;-63
2022/12/03 12:51:26;;;;;;;;;;;2.90;99.90;;;;;;5018556;28;19996;-64
2022/12/03 12:53:54;;;;;;;;;;;2.80;99.90;;;;;;5027645;28;19967;-64
2022/12/03 12:56:24;;;;;;;;;;;2.90;99.90;;;;;;5028710;28;19970;-64
2022/12/03 12:58:52;;;;;;;;;;;2.80;99.90;;;;;;5028495;28;19965;-63
2022/12/03 13:01:24;;;;;;;;;;;2.80;99.90;;;;;;5026505;28;19992;-63
2022/12/03 13:03:53;;;;;;;;;;;2.80;99.90;;;;;;5031904;28;20463;-63
2022/12/03 13:06:22;;;;;;;;;;;2.70;99.90;;;;;;5020795;28;19971;-63
2022/12/03 13:08:50;;;;;;;;;;;2.70;99.90;;;;;;5025432;28;20063;-64
2022/12/03 13:11:28;;;;;;;;;;;2.80;99.90;;;;;;5018738;28;19973;-62
2022/12/03 13:13:56;;;;;;;;;;;2.80;99.90;;;;;;5027723;28;20577;-64
2022/12/03 13:16:27;;;;;;;;;;;2.80;99.90;;;;;;5023826;28;19964;-63
2022/12/03 13:18:56;;;;;;;;;;;2.80;99.90;;;;;;5029788;28;20727;-64
2022/12/03 13:21:24;;;;;;;;;;;2.80;99.90;;;;;;5028765;28;20434;-63
2022/12/03 13:23:54;;;;;;;;;;;2.80;99.90;;;;;;5028484;28;19971;-64
2022/12/03 13:26:23;;;;;;;;;;;2.80;99.90;;;;;;5026084;28;19970;-64
2022/12/03 13:29:13;;;;;;;;;;;2.80;99.90;;;;;;5020745;28;20338;-64
2022/12/03 13:31:46;;;;;;;;;;;2.80;99.90;;;;;;5025890;28;20067;-64
2022/12/03 13:34:16;;;;;;;;;;;2.90;99.90;;;;;;5028486;28;19971;-64
2022/12/03 13:36:45;;;;;;;;;;;2.90;99.90;;;;;;5028000;28;20345;-64
2022/12/03 13:39:26;;;;;;;;;;;2.90;99.90;;;;;;5026814;28;19968;-63
2022/12/03 13:44:41;;;;;;;;;;;2.80;99.90;;;;;;5027696;28;20361;-64
2022/12/03 13:47:13;;;;;;;;;;;2.70;99.90;;;;;;5031261;28;19969;-64
2022/12/03 13:49:41;;;;;;;;;;;2.80;99.90;;;;;;5029973;28;19986;-64
2022/12/03 13:52:11;;;;;;;;;;;2.80;99.90;;;;;;5031137;28;19967;-65
2022/12/03 13:54:39;;;;;;;;;;;2.70;99.90;;;;;;5026772;28;20063;-64
2022/12/03 13:57:07;;;;;;;;;;;2.80;99.90;;;;;;5035169;28;20352;-65
2022/12/03 13:59:35;;;;;;;;;;;2.80;99.90;;;;;;5033040;28;19964;-64
2022/12/03 14:02:02;;;;;;;;;;;2.80;99.90;;;;;;5033038;28;19964;-64
2022/12/03 14:04:31;;;;;;;;;;;2.90;99.90;;;;;;5029297;28;20071;-65
2022/12/03 14:06:59;;;;;;;;;;;2.90;99.90;;;;;;5026320;28;19964;-66
2022/12/03 14:09:27;;;;;;;;;;;2.90;99.90;;;;;;5024965;28;19973;-66
2022/12/03 14:14:40;;;;;;;;;;;2.80;99.90;;;;;;5032871;28;20445;-64
2022/12/03 14:17:08;;;;;;;;;;;2.90;99.90;;;;;;5028392;28;19971;-64
2022/12/03 14:19:37;;;;;;;;;;;2.90;99.90;;;;;;5030819;28;19964;-64
2022/12/03 14:22:06;;;;;;;;;;;2.80;99.90;;;;;;5023287;28;19964;-64
2022/12/03 14:24:34;;;;;;;;;;;2.80;99.90;;;;;;5021237;28;19972;-63
2022/12/03 14:27:02;;;;;;;;;;;2.80;99.90;;;;;;5024727;28;19971;-63
2022/12/03 14:29:30;;;;;;;;;;;2.70;99.90;;;;;;5022575;28;19973;-64
2022/12/03 14:31:57;;;;;;;;;;;2.70;99.90;;;;;;5025631;28;19963;-66
2022/12/03 14:34:25;;;;;;;;;;;2.70;99.90;;;;;;5025304;28;19972;-65
2022/12/03 14:36:55;;;;;;;;;;;2.70;99.90;;;;;;5032522;28;20436;-65
2022/12/03 14:39:23;;;;;;;;;;;2.70;99.90;;;;;;5030450;28;19968;-65
2022/12/03 14:44:37;;;;;;;;;;;2.70;99.90;;;;;;5030280;28;19965;-65
2022/12/03 14:47:04;;;;;;;;;;;2.60;99.90;;;;;;5026661;28;20388;-65
2022/12/03 14:49:32;;;;;;;;;;;2.70;99.90;;;;;;5023095;28;19968;-64
2022/12/03 14:52:02;;;;;;;;;;;2.70;99.90;;;;;;5030859;28;19967;-65
2022/12/03 14:54:29;;;;;;;;;;;2.70;99.90;;;;;;5025392;28;19966;-65
2022/12/03 14:56:57;;;;;;;;;;;2.70;99.90;;;;;;5031777;28;19968;-65
2022/12/03 14:59:25;;;;;;;;;;;2.70;99.90;;;;;;5023074;28;19972;-64
2022/12/03 15:01:54;;;;;;;;;;;2.70;99.90;;;;;;5021782;28;19964;-65
2022/12/03 15:04:22;;;;;;;;;;;2.70;99.90;;;;;;5030304;28;20019;-66
2022/12/03 15:06:50;;;;;;;;;;;2.70;99.90;;;;;;5027532;28;19968;-65
2022/12/03 15:09:19;;;;;;;;;;;2.60;99.90;;;;;;5025751;28;20446;-65
2022/12/03 15:11:47;;;;;;;;;;;2.60;99.90;;;;;;5027952;28;19971;-64
2022/12/03 15:14:15;;;;;;;;;;;2.60;99.90;;;;;;5027454;28;19973;-64